Terminal Aerodrome Forecast
Issued by NWS

Home | Current Version | Previous Version | Graphics & Text | Print | Product List | Glossary On
Versions: 1 2 3 4 5 6 7 8 9 10 11 12 13 14 15 16 17 18 19 20 21 22 23 24 25 26 27 28 29 30 31 32 33 34 35 36 37
000
FTUS43 KLOT 171700
TAFORD
TAF
KORD 171725Z 1718/1824 04010KT P6SM SCT009 OVC012
     FM172000 04010KT P6SM SCT012 BKN018
     FM180100 03008KT P6SM SCT020
     FM180400 04006KT 6SM HZ SCT020 BKN080
     FM180800 04003KT 3SM BR SCT006 OVC010
     FM181500 06005KT P6SM SCT015 BKN022
     FM182000 09007KT P6SM SCT030=

USA.gov is the U.S. government's official web portal to all federal, state and local government web resources and services.